Nearby METAR Reports

 

EIDW - Dublin Airport, Ireland
Distance from station: ENE 79km
Updated: 21/05/2018 19:00
Mostly cloudy
Mostly cloudy
 Wind from N
Wind: N 19 km/h
Temperature: 9°C
Wind Chill: 6°C
Dew Point: 7°C
Humidity: 87%
Barometer: 1021 hPa
Clouds: Mostly cloudy
Visibility: 10 km
Cloud details: Few Clouds 183 m
Mostly cloudy 274 m
2018/05/21 18:00 EIDW 211800Z 35010KT 9999 FEW006 BKN009 09/07 Q1021 NOSIG
EIME - Casement (mil), Ireland
Distance from station: ENE 62km
Updated: 21/05/2018 19:00
Overcast
Overcast
 Wind from N
Wind: N 17 km/h
Temperature: 10°C
Wind Chill: 8°C
Dew Point: 9°C
Humidity: 94%
Barometer: 1021 hPa
Clouds: Overcast
Visibility: 10 km
Cloud details: Few Clouds 152 m
Overcast 274 m
2018/05/21 18:00 EIME 211800Z 36009KT 9999 FEW005 OVC009 10/09 Q1021
EIWF - Waterford Arpt, Ireland
Distance from station: S 111km
Updated: 21/05/2018 19:00
Few Clouds
Few Clouds
 Wind from N
Wind: N 15 km/h
Temperature: 15°C
Dew Point: 12°C
Humidity: 82%
Barometer: 1019 hPa
Clouds: Few Clouds
Visibility: 10 km
Cloud details: Few Clouds 366 m
2018/05/21 18:00 EIWF 211800Z 36008KT 330V040 9999 FEW012 15/12 Q1019
 
EINN - Shannon Airport, Ireland
Distance from station: WSW 117km
Updated: 21/05/2018 19:00
Mostly cloudy
Mostly cloudy
 Wind from N
Wind: N 20 km/h
Temperature: 11°C
Dew Point: 8°C
Humidity: 82%
Barometer: 1021 hPa
Clouds: Mostly cloudy
Visibility: 10 km
Cloud details: Few Clouds 457 m
Partly cloudy 549 m
Mostly cloudy 792 m
2018/05/21 18:00 EINN 211800Z 01011KT 9999 FEW015 SCT018 BKN026 11/08 Q1021 NOSIG
EIKN - Connaught Apt, Ireland
Distance from station: NW 127km
Updated: 21/05/2018 19:00
Mostly cloudy
Mostly cloudy
 Wind from NNE
Wind: NNE 24 km/h
Temperature: 11°C
Dew Point: 5°C
Humidity: 67%
Barometer: 1022 hPa
Clouds: Mostly cloudy
Visibility: 10 km
Cloud details: Few Clouds 640 m
Mostly cloudy 8534 m
2018/05/21 18:00 EIKN 211800Z 02013KT 9999 FEW021 BKN280 11/05 Q1022 NOSIG
EISG - Sligo Arpt, Ireland
Distance from station: NNW 148km
Updated: 21/05/2018 18:30
Clear
Clear
 Wind from N
Wind: N 24 km/h
Temperature: 12°C
Dew Point: 6°C
Humidity: 67%
Barometer: 1023 hPa
Summary: Clear
Visibility: greater than 10 km
2018/05/21 17:30 EISG 211730Z 35013KT CAVOK 12/06 Q1023
 
EICK - Cork Arpt/Corcai, Ireland
Distance from station: SSW 165km
Updated: 21/05/2018 19:00
Light rain, Mostly cloudy
Light rain, Mostly cloudy
 Wind from NNW
Wind: NNW 19 km/h
Temperature: 11°C
Dew Point: 11°C
Humidity: 100%
Barometer: 1019 hPa
Summary: Light rain
Clouds: Mostly cloudy
Visibility: 6 km
Cloud details: Partly cloudy 61 m
Mostly cloudy 91 m
2018/05/21 18:00 EICK 211800Z 34010KT 6000 -RA SCT002 BKN003 11/11 Q1019 BECMG BKN007
EGAA - Belfast/Aldergro, United Kingdom
Distance from station: NNE 179km
Updated: 21/05/2018 19:20
Light rain, Mostly cloudy
Light rain, Mostly cloudy
 Wind from NNW
Wind: NNW 17 km/h
Temperature: 8°C
Wind Chill: 5°C
Dew Point: 7°C
Humidity: 93%
Barometer: 1022 hPa
Summary: Light rain
Clouds: Mostly cloudy
Visibility: 10 km
Cloud details: Partly cloudy 244 m
Mostly cloudy 396 m
2018/05/21 18:20 EGAA 211820Z 34009KT 9999 -RA SCT008 BKN013 08/07 Q1022
EIKY - Kerry Arpt, Ireland
Distance from station: SW 182km
Updated: 21/05/2018 18:30
Overcast
Overcast
 Wind from NNE
Wind: NNE 9 km/h
Temperature: 11°C
Dew Point: 9°C
Humidity: 88%
Barometer: 1021 hPa
Clouds: Overcast
Visibility: 10 km
Cloud details: Overcast 457 m
2018/05/21 17:30 EIKY 211730Z 02005KT 330V070 9999 OVC015 11/09 Q1021
 
EGAC - Belfast Harbour, United Kingdom
Distance from station: NNE 188km
Updated: 21/05/2018 19:20
Few Clouds
Few Clouds
 Wind from NNW
Wind: NNW 17 km/h
Temperature: 10°C
Wind Chill: 8°C
Dew Point: 7°C
Humidity: 82%
Barometer: 1021 hPa
Clouds: Few Clouds
Visibility: 10 km
Cloud details: Few Clouds 457 m
2018/05/21 18:20 EGAC 211820Z AUTO 33009KT 300V010 9999 FEW015/// 10/07 Q1021
EGOV - Valley Raf, United Kingdom
Distance from station: E 188km
Updated: 21/05/2018 18:50
Partly cloudy
Partly cloudy
 Wind from N
Wind: N 22 km/h
Temperature: 13°C
Dew Point: 9°C
Humidity: 77%
Barometer: 1019 hPa
Clouds: Partly cloudy
Visibility: 10 km
Cloud details: Few Clouds 366 m
Partly cloudy 6706 m
2018/05/21 17:50 EGOV 211750Z 35012KT 9999 FEW012 SCT220 13/09 Q1019 BLU
EGNS - Isle Of Man/Rona, United Kingdom
Distance from station: ENE 207km
Updated: 21/05/2018 19:20
Few Clouds
Few Clouds
 Wind from N
Wind: N 35 km/h, Gust: 54 km/h
Temperature: 10°C
Wind Chill: 6°C
Dew Point: 6°C
Humidity: 76%
Barometer: 1018 hPa
Clouds: Few Clouds
Visibility: 10 km
Cloud details: Few Clouds 335 m
2018/05/21 18:20 EGNS 211820Z 35019G29KT 310V020 9999 FEW011 10/06 Q1018 NOSIG